Time;durP1;ratioP1;P1;durP2;ratioP2;P2;SDS_P1;SDS_P2;PMS_P1;PMS_P2;Temp;Humidity;BMP_temperature;BMP_pressure;BME280_temperature;BME280_humidity;BME280_pressure;Samples;Min_cycle;Max_cycle;Signal;HPM_P1;HPM_P2
2022/10/23 00:00:39;;;;;;;49.10;29.50;;;;;;;10.63;100.00;98608.12;106547;1309;138719;-80
2022/10/23 00:03:25;;;;;;;48.40;28.70;;;;;;;10.64;99.91;98609.69;106622;1310;22154;-81
2022/10/23 00:05:51;;;;;;;48.70;29.10;;;;;;;10.64;99.99;98611.98;106538;1306;137278;-81
2022/10/23 00:08:17;;;;;;;48.30;30.30;;;;;;;10.64;99.88;98618.15;106651;1296;22246;-80
2022/10/23 00:10:44;;;;;;;48.30;29.00;;;;;;;10.64;99.87;98616.90;106598;1310;138461;-80
2022/10/23 00:13:12;;;;;;;51.10;28.80;;;;;;;10.64;99.78;98618.73;106680;1307;22194;-81
2022/10/23 00:15:38;;;;;;;48.00;28.20;;;;;;;10.64;99.98;98624.94;106583;1310;23206;-82
2022/10/23 00:18:04;;;;;;;53.10;28.60;;;;;;;10.64;100.00;98628.49;106477;1310;138568;-81
2022/10/23 00:20:31;;;;;;;47.40;28.60;;;;;;;10.64;99.69;98630.63;106648;1302;22175;-81
2022/10/23 00:22:57;;;;;;;43.70;28.50;;;;;;;10.66;99.87;98636.82;106547;1309;138457;-81
2022/10/23 00:25:23;;;;;;;48.30;28.90;;;;;;;10.67;99.93;98641.02;106624;1310;22227;-81
2022/10/23 00:27:49;;;;;;;51.40;30.30;;;;;;;10.66;99.79;98643.80;106623;1307;22174;-81
2022/10/23 00:30:15;;;;;;;47.80;30.20;;;;;;;10.66;99.80;98645.80;106462;1310;138462;-80
2022/10/23 00:32:41;;;;;;;46.70;27.40;;;;;;;10.68;99.71;98645.81;106576;1310;22182;-80
2022/10/23 00:35:07;;;;;;;49.10;28.40;;;;;;;10.67;99.54;98645.06;106745;1303;138726;-79
2022/10/23 00:37:36;;;;;;;51.90;30.80;;;;;;;10.69;99.49;98649.58;106683;1310;22069;-81
2022/10/23 00:40:03;;;;;;;52.00;31.20;;;;;;;10.69;99.77;98652.02;106635;1293;22379;-81
2022/10/23 00:42:32;;;;;;;52.50;30.20;;;;;;;10.71;99.42;98652.92;106508;1297;138455;-80
2022/10/23 00:45:16;;;;;;;47.50;29.60;;;;;;;10.71;99.42;98657.78;106628;1301;22267;-79
2022/10/23 00:47:42;;;;;;;45.40;26.30;;;;;;;10.70;99.56;98656.03;106523;1308;139257;-81
2022/10/23 00:50:08;;;;;;;47.80;28.90;;;;;;;10.70;99.41;98658.84;106531;1296;22268;-81
2022/10/23 00:52:40;;;;;;;44.50;29.10;;;;;;;10.70;99.54;98665.27;106515;1309;138544;-80
2022/10/23 00:55:07;;;;;;;39.80;25.10;;;;;;;10.70;99.29;98670.40;106886;1286;22186;-80
2022/10/23 00:57:34;;;;;;;44.00;29.20;;;;;;;10.69;99.60;98669.13;106591;1310;22305;-80
2022/10/23 01:00:00;;;;;;;50.50;28.70;;;;;;;10.70;99.55;98671.27;106561;1295;138445;-80
2022/10/23 01:02:26;;;;;;;49.30;30.20;;;;;;;10.70;99.50;98665.05;106692;1310;22161;-81
2022/10/23 01:04:52;;;;;;;45.40;28.50;;;;;;;10.70;99.38;98662.83;106603;1310;138843;-79
2022/10/23 01:07:32;;;;;;;45.50;29.00;;;;;;;10.70;99.38;98661.91;106709;1310;22249;-81
2022/10/23 01:09:58;;;;;;;42.00;26.70;;;;;;;10.70;99.34;98663.33;106507;1302;22262;-81
2022/10/23 01:12:27;;;;;;;43.50;27.20;;;;;;;10.70;99.27;98666.82;106507;1309;138411;-81
2022/10/23 01:15:20;;;;;;;49.30;27.00;;;;;;;10.70;99.23;98665.60;106507;1309;22249;-81
2022/10/23 01:17:58;;;;;;;41.90;26.60;;;;;;;10.69;99.21;98671.69;106293;1309;138824;-81
2022/10/23 01:20:45;;;;;;;43.30;25.30;;;;;;;10.69;99.36;98665.41;106814;1303;22090;-80
2022/10/23 01:23:51;;;;;;;42.80;24.30;;;;;;;10.69;99.22;98668.53;106395;1310;138516;-81
2022/10/23 01:26:56;;;;;;;45.70;28.20;;;;;;;10.69;99.10;98672.40;106462;1309;22223;-81
2022/10/23 01:29:36;;;;;;;42.50;25.40;;;;;;;10.70;99.43;98682.39;106435;1310;138916;-80
2022/10/23 01:32:10;;;;;;;41.20;24.50;;;;;;;10.70;99.17;98678.41;106703;1310;22141;-81
2022/10/23 01:34:40;;;;;;;44.30;28.00;;;;;;;10.70;99.13;98679.93;106517;1310;138556;-80
2022/10/23 01:37:10;;;;;;;41.20;26.20;;;;;;;10.70;99.31;98670.88;106667;1308;22948;-81
2022/10/23 01:39:47;;;;;;;40.10;25.30;;;;;;;10.68;98.90;98661.69;106575;1310;22170;-81
2022/10/23 01:42:21;;;;;;;45.20;26.40;;;;;;;10.66;98.79;98670.70;106536;1293;138540;-81
2022/10/23 01:45:02;;;;;;;41.00;25.30;;;;;;;10.65;98.55;98675.83;106604;1296;22215;-81
2022/10/23 01:47:37;;;;;;;47.30;27.10;;;;;;;10.60;98.38;98673.75;106444;1310;138354;-80
2022/10/23 01:50:09;;;;;;;43.30;26.40;;;;;;;10.58;98.60;98677.52;106528;1292;22088;-80
2022/10/23 01:52:36;;;;;;;45.30;27.10;;;;;;;10.57;98.69;98677.20;106497;1309;138721;-81
2022/10/23 01:55:10;;;;;;;44.70;27.00;;;;;;;10.56;98.72;98676.65;106676;1308;22115;-80
2022/10/23 01:57:39;;;;;;;46.00;28.00;;;;;;;10.55;98.76;98680.77;106556;1309;22239;-81
2022/10/23 02:00:12;;;;;;;44.70;27.10;;;;;;;10.55;98.59;98681.40;106382;1304;139179;-80
2022/10/23 02:02:56;;;;;;;40.90;27.40;;;;;;;10.54;98.58;98685.98;106567;1309;22326;-81
2022/10/23 02:05:29;;;;;;;44.80;27.50;;;;;;;10.54;98.97;98694.23;106768;1285;138431;-80
2022/10/23 02:07:57;;;;;;;44.60;26.30;;;;;;;10.53;98.40;98695.91;106556;1304;22100;-81
2022/10/23 02:10:31;;;;;;;43.30;26.20;;;;;;;10.53;98.67;98692.41;106536;1310;23173;-81
2022/10/23 02:13:18;;;;;;;44.90;27.70;;;;;;;10.53;98.69;98692.09;106805;1282;138131;-81
2022/10/23 02:15:49;;;;;;;45.30;28.10;;;;;;;10.51;98.55;98696.04;106668;1310;23166;-81
2022/10/23 02:18:35;;;;;;;40.80;27.10;;;;;;;10.50;98.39;98697.70;106536;1310;138491;-81
2022/10/23 02:21:08;;;;;;;50.10;29.20;;;;;;;10.48;98.53;98695.36;106579;1310;22342;-80
2022/10/23 02:23:40;;;;;;;48.50;30.10;;;;;;;10.46;98.38;98695.10;106450;1309;139136;-81
2022/10/23 02:26:20;;;;;;;51.60;29.40;;;;;;;10.43;98.07;98697.65;106657;1308;22128;-81
2022/10/23 02:28:54;;;;;;;49.60;29.20;;;;;;;10.42;98.19;98704.71;106438;1310;138590;-80
2022/10/23 02:31:22;;;;;;;51.80;30.90;;;;;;;10.41;98.32;98707.23;106530;1310;23240;-80
2022/10/23 02:33:49;;;;;;;50.30;29.50;;;;;;;10.40;98.38;98707.77;106526;1309;22926;-81
2022/10/23 02:36:17;;;;;;;51.30;30.60;;;;;;;10.39;98.13;98703.05;106376;1310;138563;-82
2022/10/23 02:38:45;;;;;;;57.00;33.20;;;;;;;10.37;98.11;98701.71;106542;1309;22255;-81
2022/10/23 02:41:20;;;;;;;52.40;32.70;;;;;;;10.35;97.98;98702.55;106500;1309;138729;-81
2022/10/23 02:43:49;;;;;;;52.60;32.90;;;;;;;10.32;98.09;98696.97;106531;1295;22237;-80
2022/10/23 02:46:34;;;;;;;44.40;27.90;;;;;;;10.31;98.34;98704.02;106698;1310;22179;-81
2022/10/23 02:49:50;;;;;;;49.20;30.50;;;;;;;10.28;98.34;98706.82;106875;1300;22253;-81
2022/10/23 02:52:26;;;;;;;54.40;32.20;;;;;;;10.26;98.21;98708.66;105356;1322;22185;-81
2022/10/23 02:55:09;;;;;;;50.20;32.20;;;;;;;10.25;98.20;98713.16;105211;1324;138371;-81
2022/10/23 02:58:03;;;;;;;55.00;33.00;;;;;;;10.22;98.49;98712.45;105354;1324;22299;-81
2022/10/23 03:00:32;;;;;;;52.60;31.80;;;;;;;10.22;98.54;98709.12;105240;1321;138681;-80
2022/10/23 03:03:10;;;;;;;52.90;33.90;;;;;;;10.20;98.46;98710.89;105390;1307;22941;-81
2022/10/23 03:05:39;;;;;;;50.20;31.50;;;;;;;10.19;98.62;98719.23;105157;1322;138608;-81
2022/10/23 03:08:10;;;;;;;47.70;30.90;;;;;;;10.17;98.62;98722.30;105838;1306;22221;-81
2022/10/23 03:10:37;;;;;;;50.70;30.60;;;;;;;10.15;98.19;98723.48;105302;1313;138530;-80
2022/10/23 03:13:09;;;;;;;52.60;30.40;;;;;;;10.14;98.97;98730.44;105370;1313;22069;-81
2022/10/23 03:15:42;;;;;;;51.00;30.90;;;;;;;10.14;99.03;98725.26;105289;1323;22254;-81
2022/10/23 03:18:11;;;;;;;;;;;;;;;10.15;99.19;98731.98;105237;1322;138429;-81
2022/10/23 03:20:40;;;;;;;48.50;30.50;;;;;;;10.14;99.39;98732.55;105344;1323;22203;-82
2022/10/23 03:23:10;;;;;;;48.80;31.30;;;;;;;10.14;98.92;98732.56;105225;1307;138639;-81
2022/10/23 03:25:39;;;;;;;50.40;31.20;;;;;;;10.14;99.28;98730.27;105421;1322;22186;-80
2022/10/23 03:28:06;;;;;;;53.40;29.70;;;;;;;10.15;98.97;98730.45;105583;1316;22255;-81
2022/10/23 03:30:34;;;;;;;49.20;29.70;;;;;;;10.16;98.94;98728.13;106393;1310;138742;-81
2022/10/23 03:33:00;;;;;;;48.40;28.70;;;;;;;10.16;99.10;98732.11;106839;1295;22211;-81
2022/10/23 03:35:26;;;;;;;49.10;29.80;;;;;;;10.17;99.00;98731.59;106541;1309;138347;-81
2022/10/23 03:37:52;;;;;;;43.40;28.50;;;;;;;10.17;99.04;98729.74;106607;1309;22138;-80
2022/10/23 03:40:19;;;;;;;45.30;27.40;;;;;;;10.17;98.85;98736.99;106523;1305;22188;-81
2022/10/23 03:42:46;;;;;;;45.90;28.60;;;;;;;10.16;98.77;98736.14;106646;1286;138605;-80
2022/10/23 03:45:14;;;;;;;38.00;24.70;;;;;;;10.15;98.58;98736.27;106575;1309;22615;-81
2022/10/23 03:47:41;;;;;;;41.20;25.30;;;;;;;10.14;98.89;98732.77;106412;1305;138648;-81
2022/10/23 03:50:08;;;;;;;43.90;26.30;;;;;;;10.13;98.83;98735.05;106697;1309;22246;-81
2022/10/23 03:52:34;;;;;;;39.90;26.20;;;;;;;10.14;98.97;98739.90;106546;1310;22242;-81
2022/10/23 03:55:01;;;;;;;37.40;22.60;;;;;;;10.15;98.97;98738.84;106855;1287;23352;-81
2022/10/23 03:57:27;;;;;;;41.20;24.50;;;;;;;10.14;98.56;98737.67;106643;1305;22157;-80
2022/10/23 03:59:53;;;;;;;37.60;22.70;;;;;;;10.12;98.64;98741.43;106517;1309;139479;-81
2022/10/23 04:02:20;;;;;;;41.50;23.10;;;;;;;10.11;98.84;98743.59;106537;1309;23117;-81
2022/10/23 04:04:46;;;;;;;39.60;23.80;;;;;;;10.11;98.72;98736.61;106753;1287;139238;-81
2022/10/23 04:07:12;;;;;;;38.60;23.50;;;;;;;10.11;98.88;98736.91;106708;1309;22187;-82
2022/10/23 04:09:38;;;;;;;38.40;23.60;;;;;;;10.12;98.59;98737.39;106649;1309;22205;-81
2022/10/23 04:12:05;;;;;;;38.80;23.40;;;;;;;10.11;98.60;98736.52;106449;1310;138481;-81
2022/10/23 04:14:33;;;;;;;31.40;21.10;;;;;;;10.11;98.49;98742.71;106584;1298;23044;-81
2022/10/23 04:17:00;;;;;;;34.10;20.20;;;;;;;10.09;98.09;98740.48;106412;1310;138683;-81
2022/10/23 04:19:27;;;;;;;33.70;20.10;;;;;;;10.06;98.21;98731.83;106531;1309;22429;-81
2022/10/23 04:21:56;;;;;;;36.90;21.20;;;;;;;10.05;98.36;98735.77;106767;1302;22248;-80
2022/10/23 04:24:23;;;;;;;38.80;22.50;;;;;;;10.04;98.33;98733.32;106461;1296;138643;-81
2022/10/23 04:26:49;;;;;;;33.80;21.30;;;;;;;10.03;98.28;98733.88;106824;1300;22145;-80
2022/10/23 04:29:16;;;;;;;35.10;21.20;;;;;;;10.02;98.11;98734.39;106599;1310;138698;-80
2022/10/23 04:31:42;;;;;;;33.50;20.80;;;;;;;10.00;98.14;98732.33;106534;1310;22873;-81
2022/10/23 04:34:08;;;;;;;35.40;22.20;;;;;;;9.98;97.81;98732.83;106501;1301;22210;-80
2022/10/23 04:36:35;;;;;;;36.70;23.40;;;;;;;9.94;97.72;98733.59;106406;1309;138179;-80
2022/10/23 04:39:09;;;;;;;36.80;22.00;;;;;;;9.91;97.51;98739.23;106420;1309;22144;-80
2022/10/23 04:41:37;;;;;;;30.50;21.00;;;;;;;9.88;97.61;98744.50;106421;1309;138294;-80
2022/10/23 04:44:03;;;;;;;35.90;21.90;;;;;;;9.86;97.66;98741.34;106516;1309;23190;-81
2022/10/23 04:46:32;;;;;;;34.80;21.80;;;;;;;9.84;97.61;98740.87;106582;1309;22407;-80
2022/10/23 04:48:58;;;;;;;30.80;19.40;;;;;;;9.82;97.68;98737.65;106699;1303;137928;-80
2022/10/23 04:51:43;;;;;;;30.30;19.70;;;;;;;9.80;97.38;98732.91;106709;1309;22691;-81
2022/10/23 04:54:38;;;;;;;30.70;20.10;;;;;;;9.76;97.05;98733.94;106394;1296;138402;-80
2022/10/23 04:57:22;;;;;;;34.50;21.60;;;;;;;9.71;97.02;98729.75;106527;1310;22180;-80
2022/10/23 05:00:09;;;;;;;33.00;21.40;;;;;;;9.66;97.07;98728.98;106627;1303;138386;-81
2022/10/23 05:02:44;;;;;;;32.90;20.60;;;;;;;9.61;96.75;98724.45;106517;1310;22197;-80
2022/10/23 05:05:12;;;;;;;34.50;22.20;;;;;;;9.58;97.01;98723.16;106381;1295;138557;-80
2022/10/23 05:08:04;;;;;;;33.40;21.60;;;;;;;9.56;97.30;98728.87;106427;1308;22116;-81
2022/10/23 05:10:34;;;;;;;38.60;23.50;;;;;;;9.55;97.53;98732.48;106619;1309;22899;-80
2022/10/23 05:13:06;;;;;;;38.20;23.50;;;;;;;9.57;97.81;98738.25;106628;1309;22163;-80
2022/10/23 05:15:32;;;;;;;36.90;22.30;;;;;;;9.58;98.12;98736.05;106500;1293;22088;-80
2022/10/23 05:18:04;;;;;;;33.10;22.20;;;;;;;9.61;98.27;98737.37;106569;1308;138303;-81
2022/10/23 05:20:35;;;;;;;37.60;22.90;;;;;;;9.64;98.61;98733.27;106545;1310;22346;-80
2022/10/23 05:23:02;;;;;;;32.20;21.10;;;;;;;9.67;98.51;98734.40;106427;1310;138686;-80
2022/10/23 05:25:29;;;;;;;34.60;21.10;;;;;;;9.71;98.53;98735.02;106659;1293;22231;-80
2022/10/23 05:28:08;;;;;;;33.10;21.50;;;;;;;9.74;98.49;98730.70;106512;1309;22414;-80
2022/10/23 05:30:34;;;;;;;31.20;20.40;;;;;;;9.78;98.67;98732.70;106411;1310;138345;-80
2022/10/23 05:33:01;;;;;;;32.00;20.20;;;;;;;9.82;98.83;98731.88;106490;1310;22344;-80
2022/10/23 05:35:29;;;;;;;30.90;19.90;;;;;;;9.85;98.69;98728.05;106433;1296;138397;-80
2022/10/23 05:37:58;;;;;;;30.50;20.40;;;;;;;9.90;98.51;98729.79;106621;1294;22333;-80
2022/10/23 05:40:25;;;;;;;33.60;21.30;;;;;;;9.93;98.62;98733.30;106509;1310;22165;-80
2022/10/23 05:42:59;;;;;;;36.10;20.70;;;;;;;9.98;98.57;98730.87;106410;1309;138275;-80
2022/10/23 05:45:40;;;;;;;32.20;20.70;;;;;;;10.03;98.69;98730.17;106516;1295;22119;-80
2022/10/23 05:48:21;;;;;;;32.00;20.10;;;;;;;10.08;98.87;98733.16;106462;1292;138465;-80
2022/10/23 05:51:23;;;;;;;35.40;21.90;;;;;;;10.13;98.65;98730.45;106332;1310;22156;-80
2022/10/23 05:54:09;;;;;;;34.40;21.10;;;;;;;10.17;98.64;98729.80;106291;1310;138683;-80
2022/10/23 05:56:58;;;;;;;29.30;20.10;;;;;;;10.21;98.58;98733.54;106817;1289;22936;-80
2022/10/23 05:59:34;;;;;;;35.30;22.20;;;;;;;10.23;98.32;98734.47;106487;1303;138412;-80
2022/10/23 06:02:33;;;;;;;34.40;21.60;;;;;;;10.27;98.10;98736.08;106158;1309;22392;-80
2022/10/23 06:05:05;;;;;;;33.50;21.20;;;;;;;10.30;98.22;98736.15;106421;1310;138636;-80
2022/10/23 06:07:34;;;;;;;;;;;;;;;10.31;97.81;98731.67;106567;1295;22343;-80
2022/10/23 06:10:00;;;;;;;33.10;21.00;;;;;;;10.31;97.95;98733.26;106531;1310;22255;-81
2022/10/23 06:12:27;;;;;;;34.20;21.00;;;;;;;10.33;97.98;98735.09;106484;1309;138672;-80
2022/10/23 06:14:53;;;;;;;34.30;21.70;;;;;;;10.32;97.78;98738.02;106551;1309;22409;-80
2022/10/23 06:17:20;;;;;;;33.60;20.90;;;;;;;10.34;97.74;98740.13;106416;1296;138536;-80
2022/10/23 06:19:48;;;;;;;33.70;21.30;;;;;;;10.37;98.17;98745.81;106568;1308;22230;-81
2022/10/23 06:22:17;;;;;;;30.00;19.80;;;;;;;10.43;98.16;98749.64;106545;1310;22198;-80
2022/10/23 06:24:50;;;;;;;39.50;25.10;;;;;;;10.49;98.07;98748.75;106463;1310;138599;-80
2022/10/23 06:27:28;;;;;;;34.60;23.80;;;;;;;10.57;98.48;98754.39;106893;1300;22181;-81
2022/10/23 06:29:55;;;;;;;33.60;23.00;;;;;;;10.65;97.98;98752.42;106351;1306;138425;-80
2022/10/23 06:32:22;;;;;;;35.70;23.60;;;;;;;10.71;98.06;98755.47;106610;1309;22898;-80
2022/10/23 06:35:07;;;;;;;35.20;23.90;;;;;;;10.79;98.29;98762.06;106530;1309;138749;-80
2022/10/23 06:37:33;;;;;;;34.50;22.90;;;;;;;10.87;97.88;98763.70;106557;1288;22119;-81
2022/10/23 06:40:07;;;;;;;35.20;22.80;;;;;;;10.96;97.85;98768.65;106533;1309;23073;-80
2022/10/23 06:42:45;;;;;;;33.40;21.80;;;;;;;11.01;97.36;98769.84;106438;1309;138580;-81
2022/10/23 06:45:43;;;;;;;33.70;23.20;;;;;;;11.07;97.31;98771.60;106235;1309;22072;-81
2022/10/23 06:48:31;;;;;;;32.90;21.10;;;;;;;11.13;97.18;98777.80;106250;1301;138768;-81
2022/10/23 06:51:06;;;;;;;36.40;23.40;;;;;;;11.15;96.72;98781.18;106536;1309;22259;-81
2022/10/23 06:53:40;;;;;;;31.90;22.10;;;;;;;11.20;97.07;98780.65;106450;1309;138680;-81
2022/10/23 06:56:33;;;;;;;35.20;23.30;;;;;;;11.27;97.02;98783.19;106650;1301;22386;-80
2022/10/23 06:59:00;;;;;;;33.60;23.20;;;;;;;11.32;96.91;98786.73;106418;1310;138897;-81
2022/10/23 07:01:26;;;;;;;32.50;21.80;;;;;;;11.37;96.74;98789.56;106882;1300;22079;-80
2022/10/23 07:03:55;;;;;;;32.90;22.20;;;;;;;11.43;96.75;98797.41;106724;1309;22223;-79
2022/10/23 07:06:24;;;;;;;33.60;22.30;;;;;;;11.47;96.39;98794.92;106469;1310;138697;-80
2022/10/23 07:08:51;;;;;;;27.50;18.60;;;;;;;11.48;96.19;98791.90;106855;1287;22108;-81
2022/10/23 07:11:37;;;;;;;26.60;18.70;;;;;;;11.51;96.01;98791.79;106823;1298;138668;-79
2022/10/23 07:14:03;;;;;;;25.30;17.60;;;;;;;11.53;96.05;98792.36;106782;1289;22070;-81
2022/10/23 07:16:30;;;;;;;25.40;19.00;;;;;;;11.55;95.71;98787.98;106557;1309;22378;-80
2022/10/23 07:18:59;;;;;;;26.60;18.60;;;;;;;11.55;95.29;98796.73;106449;1296;138496;-81
2022/10/23 07:21:30;;;;;;;28.30;18.50;;;;;;;11.55;95.30;98801.85;106600;1310;22097;-81
2022/10/23 07:24:14;;;;;;;29.60;20.00;;;;;;;11.56;94.89;98801.50;106548;1310;138710;-81
2022/10/23 07:26:40;;;;;;;29.10;20.70;;;;;;;11.56;94.86;98801.48;106726;1310;22120;-80
2022/10/23 07:29:06;;;;;;;28.10;20.50;;;;;;;11.60;95.12;98801.63;106554;1293;138933;-80
2022/10/23 07:31:33;;;;;;;28.10;20.10;;;;;;;11.63;94.89;98797.04;106496;1309;22121;-80
2022/10/23 07:34:17;;;;;;;30.50;20.30;;;;;;;11.68;95.09;98794.96;106622;1309;22179;-79
2022/10/23 07:36:45;;;;;;;28.20;20.00;;;;;;;11.74;95.11;98788.73;106638;1287;138394;-80
2022/10/23 07:39:12;;;;;;;31.10;19.80;;;;;;;11.80;94.99;98789.66;106496;1302;23020;-81
2022/10/23 07:41:44;;;;;;;29.60;20.30;;;;;;;11.87;94.74;98794.91;106368;1309;138906;-81
2022/10/23 07:44:10;;;;;;;25.40;18.20;;;;;;;11.94;94.71;98798.94;106479;1309;22343;-81
2022/10/23 07:46:36;;;;;;;28.40;18.30;;;;;;;12.01;94.53;98803.05;106623;1309;22896;-80
2022/10/23 07:49:03;;;;;;;29.00;19.80;;;;;;;12.08;94.49;98807.27;106670;1287;138447;-79
2022/10/23 07:51:29;;;;;;;27.40;19.20;;;;;;;12.15;94.18;98807.39;106996;1288;22975;-80
2022/10/23 07:53:58;;;;;;;30.60;20.40;;;;;;;12.20;93.94;98806.05;106578;1305;138486;-80
2022/10/23 07:56:47;;;;;;;28.60;19.90;;;;;;;12.24;93.90;98810.98;106704;1310;22924;-80
2022/10/23 07:59:13;;;;;;;27.00;19.50;;;;;;;12.28;93.89;98815.27;106543;1293;138842;-80
2022/10/23 08:01:41;;;;;;;27.50;19.60;;;;;;;12.33;93.91;98818.83;106539;1310;22797;-80
2022/10/23 08:04:09;;;;;;;27.70;18.90;;;;;;;12.36;93.53;98821.30;106657;1309;22099;-80
2022/10/23 08:06:41;;;;;;;27.20;19.20;;;;;;;12.40;93.57;98825.19;106401;1309;138439;-80
2022/10/23 08:09:07;;;;;;;29.60;19.60;;;;;;;12.48;93.74;98826.13;106560;1309;22202;-81
2022/10/23 08:11:34;;;;;;;25.80;19.20;;;;;;;12.56;93.68;98823.81;106363;1296;138394;-80
2022/10/23 08:14:04;;;;;;;25.20;18.90;;;;;;;12.67;93.67;98813.09;106550;1309;23171;-80
2022/10/23 08:16:33;;;;;;;28.70;19.00;;;;;;;12.78;93.71;98802.44;106496;1310;22341;-80
2022/10/23 08:19:04;;;;;;;31.40;19.80;;;;;;;12.88;93.37;98793.55;106507;1296;138425;-80
2022/10/23 08:21:31;;;;;;;26.40;19.60;;;;;;;12.95;92.89;98790.86;106563;1310;22844;-81
2022/10/23 08:23:59;;;;;;;23.50;17.10;;;;;;;13.00;92.85;98791.05;106735;1298;138497;-81
2022/10/23 08:26:28;;;;;;;22.10;15.00;;;;;;;13.05;92.49;98794.83;106585;1310;21970;-81
2022/10/23 08:28:57;;;;;;;19.40;14.40;;;;;;;13.10;92.23;98796.48;106459;1295;138532;-81
2022/10/23 08:31:24;;;;;;;16.90;13.60;;;;;;;13.16;92.31;98798.80;106520;1309;22191;-81
2022/10/23 08:34:09;;;;;;;21.00;14.90;;;;;;;13.22;91.63;98797.12;106900;1288;22185;-81
2022/10/23 08:36:38;;;;;;;24.70;15.20;;;;;;;13.29;91.37;98799.04;106631;1302;139158;-81
2022/10/23 08:39:05;;;;;;;18.90;14.20;;;;;;;13.37;91.23;98796.09;106498;1299;22192;-81
2022/10/23 08:41:37;;;;;;;18.70;13.70;;;;;;;13.47;91.16;98801.91;106506;1309;138761;-81
2022/10/23 08:44:19;;;;;;;18.40;13.60;;;;;;;13.52;90.43;98808.86;106475;1309;22944;-81
2022/10/23 08:46:55;;;;;;;17.80;13.60;;;;;;;13.58;89.62;98804.70;106414;1302;138596;-80
2022/10/23 08:50:05;;;;;;;16.60;12.30;;;;;;;13.64;89.26;98807.84;106623;1293;22383;-81
2022/10/23 08:53:01;;;;;;;21.30;12.80;;;;;;;13.69;89.17;98807.02;106613;1309;138701;-79
2022/10/23 08:56:16;;;;;;;18.40;13.10;;;;;;;13.75;89.31;98806.59;106682;1308;22186;-81
2022/10/23 08:59:31;;;;;;;16.10;12.80;;;;;;;13.87;89.10;98815.11;106875;1303;138652;-80
2022/10/23 09:02:12;;;;;;;17.70;12.00;;;;;;;13.99;88.16;98809.80;106133;1310;22894;-80
2022/10/23 09:04:44;;;;;;;16.30;11.50;;;;;;;14.04;87.82;98811.55;105822;1320;22346;-80
2022/10/23 09:07:49;;;;;;;16.60;11.50;;;;;;;14.12;87.93;98817.33;106134;1305;22754;-81
2022/10/23 09:10:21;;;;;;;19.20;12.50;;;;;;;14.22;87.90;98813.30;105802;1304;22471;-81
2022/10/23 09:12:48;;;;;;;16.60;12.90;;;;;;;14.30;87.49;98813.48;105681;1318;138483;-80
2022/10/23 09:15:24;;;;;;;17.10;12.00;;;;;;;14.37;86.77;98804.61;105686;1305;22259;-82
2022/10/23 09:18:00;;;;;;;15.90;11.90;;;;;;;14.43;86.30;98804.55;105710;1318;138573;-81
2022/10/23 09:20:33;;;;;;;17.40;11.90;;;;;;;14.48;86.09;98804.59;105814;1304;22150;-81
2022/10/23 09:23:01;;;;;;;16.60;11.40;;;;;;;14.53;85.57;98811.87;106046;1289;138472;-80
2022/10/23 09:25:34;;;;;;;15.10;10.80;;;;;;;14.56;85.07;98810.74;105836;1317;22209;-80
2022/10/23 09:28:04;;;;;;;15.60;11.40;;;;;;;14.59;84.46;98809.31;106193;1299;22424;-76
2022/10/23 09:30:34;;;;;;;14.40;11.50;;;;;;;14.63;84.10;98817.29;106042;1302;138623;-80
2022/10/23 09:33:19;;;;;;;16.60;12.30;;;;;;;14.69;84.33;98822.04;106212;1308;22446;-80
2022/10/23 09:36:13;;;;;;;16.30;11.80;;;;;;;14.76;84.34;98821.39;106367;1309;329294;-81
2022/10/23 09:38:45;;;;;;;18.50;12.30;;;;;;;14.85;83.95;98822.70;106543;1308;22929;-81
2022/10/23 09:41:32;;;;;;;14.00;10.90;;;;;;;14.93;83.91;98819.64;106603;1308;139009;-80
2022/10/23 09:44:07;;;;;;;16.50;12.30;;;;;;;15.07;84.09;98814.77;106852;1287;22209;-80
2022/10/23 09:46:45;;;;;;;16.70;12.20;;;;;;;15.18;83.94;98808.53;106496;1310;22380;-80
2022/10/23 09:49:26;;;;;;;13.20;10.80;;;;;;;15.32;83.72;98806.57;106512;1309;22209;-81
2022/10/23 09:52:23;;;;;;;14.60;11.50;;;;;;;15.40;82.58;98801.21;106620;1296;22634;-80
2022/10/23 09:54:55;;;;;;;13.30;11.20;;;;;;;15.44;82.10;98802.66;106829;1303;138457;-81
2022/10/23 09:57:41;;;;;;;15.70;10.30;;;;;;;15.48;82.02;98797.36;106973;1302;22115;-80
2022/10/23 10:00:13;;;;;;;12.30;9.60;;;;;;;15.56;82.27;98785.97;106556;1308;138872;-80
2022/10/23 10:02:56;;;;;;;11.30;9.80;;;;;;;15.66;82.00;98785.89;106658;1296;22338;-80
2022/10/23 10:06:23;;;;;;;17.60;11.20;;;;;;;15.78;80.69;98781.34;106527;1309;138396;-79
2022/10/23 10:08:55;;;;;;;13.50;9.90;;;;;;;15.86;80.86;98781.46;106599;1309;22254;-80
2022/10/23 10:11:44;;;;;;;15.10;10.40;;;;;;;15.94;80.21;98789.00;106500;1309;138496;-79
2022/10/23 10:14:33;;;;;;;14.30;11.40;;;;;;;16.03;80.13;98784.23;106942;1286;22167;-80
2022/10/23 10:17:25;;;;;;;11.80;9.70;;;;;;;16.12;79.74;98780.45;106376;1305;139123;-79
2022/10/23 10:20:16;;;;;;;14.40;9.90;;;;;;;16.23;79.63;98783.86;106521;1309;22203;-80
2022/10/23 10:22:59;;;;;;;16.00;10.30;;;;;;;16.32;79.21;98790.59;106553;1310;138245;-78
2022/10/23 10:25:36;;;;;;;11.00;9.00;;;;;;;16.42;79.15;98791.08;106867;1302;22174;-80
2022/10/23 10:28:28;;;;;;;12.20;8.80;;;;;;;16.52;78.47;98789.35;106867;1300;22348;-80
2022/10/23 10:31:16;;;;;;;13.20;8.20;;;;;;;16.62;77.70;98783.91;106779;1291;138046;-80
2022/10/23 10:34:04;;;;;;;9.10;7.80;;;;;;;16.70;76.94;98784.52;106603;1295;22088;-79
2022/10/23 10:36:33;;;;;;;10.20;7.30;;;;;;;16.73;75.44;98778.55;106469;1309;138179;-81
2022/10/23 10:39:02;;;;;;;9.20;7.70;;;;;;;16.73;74.99;98778.39;106622;1304;22088;-80
2022/10/23 10:41:38;;;;;;;8.30;7.40;;;;;;;16.76;74.71;98776.23;106533;1309;138028;-80
2022/10/23 10:44:30;;;;;;;9.70;7.70;;;;;;;16.80;74.95;98770.13;106892;1291;22277;-80
2022/10/23 10:47:09;;;;;;;10.60;7.50;;;;;;;16.86;74.76;98759.88;106559;1309;138127;-80
2022/10/23 10:49:48;;;;;;;8.70;7.10;;;;;;;16.96;75.43;98755.66;106518;1310;22234;-80
2022/10/23 10:52:37;;;;;;;7.40;5.80;;;;;;;17.07;74.99;98755.51;106768;1298;22147;-80
2022/10/23 10:55:24;;;;;;;8.60;5.90;;;;;;;17.14;73.84;98752.63;106532;1295;138174;-79
2022/10/23 10:58:02;;;;;;;8.80;6.40;;;;;;;17.21;73.49;98748.35;106691;1310;23053;-80
2022/10/23 11:00:32;;;;;;;9.50;6.50;;;;;;;17.27;72.95;98750.54;106580;1309;138119;-79
2022/10/23 11:03:35;;;;;;;10.10;7.10;;;;;;;17.33;72.49;98747.97;106693;1301;22167;-80
2022/10/23 11:06:08;;;;;;;8.00;6.00;;;;;;;17.41;72.66;98739.02;105751;1311;138570;-80
2022/10/23 11:08:38;;;;;;;9.90;6.40;;;;;;;17.51;72.61;98733.75;105922;1317;22329;-79
2022/10/23 11:11:33;;;;;;;8.20;5.30;;;;;;;17.58;71.66;98733.41;106293;1301;138535;-79
2022/10/23 11:14:01;;;;;;;7.20;5.20;;;;;;;17.65;71.88;98728.70;106366;1310;22272;-80
2022/10/23 11:16:37;;;;;;;5.80;4.30;;;;;;;17.71;70.96;98725.09;106012;1316;22316;-79
2022/10/23 11:19:22;;;;;;;7.90;4.70;;;;;;;17.74;70.31;98720.48;105858;1316;137542;-80
2022/10/23 11:22:04;;;;;;;6.50;4.70;;;;;;;17.77;70.04;98715.99;105999;1293;22880;-79
2022/10/23 11:25:11;;;;;;;9.30;5.70;;;;;;;17.80;69.95;98711.35;105788;1304;138101;-80
2022/10/23 11:27:40;;;;;;;4.90;4.30;;;;;;;17.84;69.74;98713.42;105959;1316;22191;-81
2022/10/23 11:30:21;;;;;;;;;;;;;;;17.88;69.61;98709.23;105921;1316;138527;-79
2022/10/23 11:33:08;;;;;;;6.00;5.10;;;;;;;17.92;69.93;98710.20;105981;1315;23023;-79
2022/10/23 11:35:44;;;;;;;6.60;4.80;;;;;;;17.99;69.95;98710.64;105849;1304;139000;-80
2022/10/23 11:38:15;;;;;;;7.50;5.20;;;;;;;18.08;69.49;98704.52;105929;1316;22292;-79
2022/10/23 11:40:50;;;;;;;6.00;5.10;;;;;;;18.15;69.39;98702.72;105919;1309;22368;-78
2022/10/23 11:43:32;;;;;;;6.40;4.70;;;;;;;18.23;68.90;98699.73;106311;1310;22295;-79